Time;durP1;ratioP1;P1;durP2;ratioP2;P2;SDS_P1;SDS_P2;PMS_P1;PMS_P2;Temp;Humidity;BMP_temperature;BMP_pressure;BME280_temperature;BME280_humidity;BME280_pressure;Samples;Min_cycle;Max_cycle;Signal;HPM_P1;HPM_P2
2023/04/24 00:00:57;;;;;;;3.47;2.22;;;;;;;10.91;87.98;99423.44;6194338;23;20048;-78
2023/04/24 00:03:24;;;;;;;3.08;2.55;;;;;;;10.96;88.25;99435.97;6201589;23;20025;-78
2023/04/24 00:05:50;;;;;;;2.75;2.50;;;;;;;10.99;88.49;99425.13;6199626;23;20027;-78
2023/04/24 00:08:19;;;;;;;2.78;2.40;;;;;;;11.00;88.98;99420.69;6187384;23;20048;-79
2023/04/24 00:10:46;;;;;;;4.22;2.30;;;;;;;10.94;88.82;99423.06;6187486;23;20052;-78
2023/04/24 00:13:13;;;;;;;2.72;2.53;;;;;;;11.00;89.34;99437.22;6186045;23;20031;-78
2023/04/24 00:15:39;;;;;;;2.40;2.20;;;;;;;11.11;87.81;99413.16;6188262;23;20025;-79
2023/04/24 00:18:06;;;;;;;2.55;2.35;;;;;;;11.14;87.02;99422.44;6200510;23;20051;-79
2023/04/24 00:20:33;;;;;;;2.95;2.50;;;;;;;11.12;86.43;99413.97;6196132;23;20021;-78
2023/04/24 00:23:00;;;;;;;4.40;2.88;;;;;;;11.07;85.81;99406.69;6189663;23;20362;-78
2023/04/24 00:25:28;;;;;;;2.80;2.58;;;;;;;11.08;85.72;99413.53;6194474;23;20028;-77
2023/04/24 00:27:54;;;;;;;2.95;2.42;;;;;;;11.06;85.16;99410.28;6195963;23;20020;-78
2023/04/24 00:30:21;;;;;;;3.28;2.75;;;;;;;11.10;85.19;99413.34;6184513;23;20057;-78
2023/04/24 00:32:48;;;;;;;3.63;2.47;;;;;;;11.15;85.59;99418.81;6185366;23;20063;-78
2023/04/24 00:35:14;;;;;;;4.55;2.80;;;;;;;11.14;85.50;99419.81;6185262;23;20399;-77
2023/04/24 00:37:41;;;;;;;2.83;2.35;;;;;;;11.07;85.55;99416.34;6185116;23;20072;-78
2023/04/24 00:40:08;;;;;;;3.55;2.60;;;;;;;11.07;85.10;99419.75;6184458;23;20044;-77
2023/04/24 00:42:37;;;;;;;4.97;3.95;;;;;;;11.07;85.36;99424.19;6184362;23;20108;-78
2023/04/24 00:45:04;;;;;;;3.30;2.40;;;;;;;10.98;85.07;99403.38;6184089;23;20029;-77
2023/04/24 00:47:33;;;;;;;2.78;2.58;;;;;;;11.00;84.91;99402.38;6187260;23;20100;-77
2023/04/24 00:50:02;;;;;;;4.68;2.70;;;;;;;11.02;84.91;99408.22;6186770;23;20053;-78
2023/04/24 00:52:30;;;;;;;3.72;2.65;;;;;;;11.01;84.82;99406.63;6185051;23;20075;-77
2023/04/24 00:54:57;;;;;;;4.25;3.05;;;;;;;10.91;85.17;99406.94;6184559;23;20473;-79
2023/04/24 00:57:25;;;;;;;5.13;2.72;;;;;;;10.89;85.71;99412.34;6184867;23;20052;-78
2023/04/24 00:59:54;;;;;;;3.42;3.10;;;;;;;10.85;85.48;99405.91;6184594;23;20027;-78
2023/04/24 01:02:22;;;;;;;3.95;3.00;;;;;;;10.93;85.07;99402.31;6184648;23;20025;-80
2023/04/24 01:04:50;;;;;;;3.45;3.15;;;;;;;10.87;84.07;99396.03;6184071;23;20024;-77
2023/04/24 01:07:20;;;;;;;7.40;3.25;;;;;;;10.85;83.98;99400.66;6183078;23;20032;-76
2023/04/24 01:09:50;;;;;;;4.90;3.30;;;;;;;10.83;83.37;99391.38;6182899;23;20521;-76
2023/04/24 01:12:18;;;;;;;3.75;3.15;;;;;;;10.82;83.46;99403.66;6184565;23;20166;-77
2023/04/24 01:14:45;;;;;;;6.40;3.30;;;;;;;10.79;83.35;99409.25;6184970;23;20025;-78
2023/04/24 01:17:13;;;;;;;4.15;3.28;;;;;;;10.73;84.28;99423.09;6183475;23;20075;-77
2023/04/24 01:19:40;;;;;;;4.82;3.80;;;;;;;10.64;85.08;99424.19;6184613;23;20060;-77
2023/04/24 01:22:13;;;;;;;5.43;3.45;;;;;;;10.60;85.78;99428.19;6184323;23;20369;-77
2023/04/24 01:24:40;;;;;;;;;;;;;;;10.41;84.73;99418.28;6185281;23;20025;-78
2023/04/24 01:27:06;;;;;;;;;;;;;;;10.32;84.57;99414.19;6185379;23;19975;-78
2023/04/24 01:29:33;;;;;;;;;;;;;;;10.19;84.72;99418.28;6185280;23;19940;-77
2023/04/24 01:31:59;;;;;;;;;;;;;;;10.13;84.71;99434.66;6184883;23;19973;-77
2023/04/24 01:34:26;;;;;;;;;;;;;;;9.97;85.05;99432.22;6184032;23;19958;-76
2023/04/24 01:36:53;;;;;;;;;;;;;;;9.90;85.17;99439.19;6185167;23;19954;-78
2023/04/24 01:39:23;;;;;;;;;;;;;;;9.74;85.59;99442.78;6185983;23;19927;-78
2023/04/24 01:41:50;;;;;;;;;;;;;;;9.62;85.57;99439.78;6185439;23;20039;-77
2023/04/24 01:44:16;;;;;;;;;;;;;;;9.50;86.26;99446.44;6185909;23;20369;-78
2023/04/24 01:46:43;;;;;;;;;;;;;;;9.37;86.90;99454.06;6185901;23;19944;-78
2023/04/24 01:49:10;;;;;;;;;;;;;;;9.36;87.60;99452.44;6185082;23;19952;-78
2023/04/24 01:51:36;;;;;;;;;;;;;;;9.26;88.38;99459.72;6184658;23;19947;-78
2023/04/24 01:54:02;;;;;;;;;;;;;;;9.18;88.30;99457.16;6186200;23;19948;-78
2023/04/24 01:56:30;;;;;;;;;;;;;;;9.12;88.99;99455.25;6186905;23;19916;-77
2023/04/24 01:58:58;;;;;;;;;;;;;;;9.09;89.29;99456.41;6191925;23;19940;-78
2023/04/24 02:01:25;;;;;;;;;;;;;;;8.99;89.83;99450.59;6201163;23;19962;-78
2023/04/24 02:03:52;;;;;;;;;;;;;;;9.04;89.80;99457.91;6199890;23;19947;-78
2023/04/24 02:06:19;;;;;;;;;;;;;;;8.87;90.34;99442.41;6193106;23;20312;-78
2023/04/24 02:08:47;;;;;;;;;;;;;;;8.85;90.64;99454.00;6193774;23;19955;-78
2023/04/24 02:11:14;;;;;;;;;;;;;;;8.87;90.68;99449.41;6200184;23;19924;-79
2023/04/24 02:13:42;;;;;;;;;;;;;;;8.88;90.63;99441.41;6202708;23;19936;-78
2023/04/24 02:16:08;;;;;;;;;;;;;;;8.91;90.47;99441.06;6195148;23;20302;-78
2023/04/24 02:18:35;;;;;;;;;;;;;;;8.88;90.41;99438.81;6201865;23;19926;-77
2023/04/24 02:21:02;;;;;;;;;;;;;;;8.89;90.25;99440.44;6197405;23;19939;-77
2023/04/24 02:23:28;;;;;;;;;;;;;;;8.98;89.96;99449.81;6203711;23;19916;-77
2023/04/24 02:25:55;;;;;;;;;;;;;;;9.05;90.24;99433.44;6204454;23;19939;-78
2023/04/24 02:28:22;;;;;;;;;;;;;;;9.13;89.91;99436.00;6208404;23;19916;-79
2023/04/24 02:30:50;;;;;;;;;;;;;;;9.18;89.24;99438.91;6198694;23;19992;-79
2023/04/24 02:33:17;;;;;;;;;;;;;;;9.21;89.29;99439.34;6187309;23;20356;-78
2023/04/24 02:35:43;;;;;;;;;;;;;;;9.22;89.42;99442.78;6185967;23;19943;-78
2023/04/24 02:38:10;;;;;;;;;;;;;;;9.28;88.94;99442.88;6186256;23;20399;-77
2023/04/24 02:40:36;;;;;;;;;;;;;;;9.30;88.94;99453.16;6185638;23;19936;-77
2023/04/24 02:43:03;;;;;;;;;;;;;;;9.37;88.49;99446.25;6185440;23;19916;-77
2023/04/24 02:45:29;;;;;;;;;;;;;;;9.40;88.47;99448.50;6185225;23;19916;-77
2023/04/24 02:47:57;;;;;;;;;;;;;;;9.43;88.19;99447.34;6189022;23;19916;-77
2023/04/24 02:50:23;;;;;;;;;;;;;;;9.46;87.99;99453.00;6184868;23;19958;-77
2023/04/24 02:52:50;;;;;;;;;;;;;;;9.50;87.60;99450.84;6184902;23;19916;-77
2023/04/24 02:55:16;;;;;;;;;;;;;;;9.46;87.34;99458.22;6184559;23;19944;-76
2023/04/24 02:57:43;;;;;;;;;;;;;;;9.50;87.42;99464.69;6184553;23;19948;-77
2023/04/24 03:00:11;;;;;;;;;;;;;;;9.44;87.71;99460.22;6185330;23;19979;-76
2023/04/24 03:02:37;;;;;;;;;;;;;;;9.54;87.63;99470.38;6186295;23;19966;-77
2023/04/24 03:05:06;;;;;;;;;;;;;;;9.52;87.45;99462.72;6186714;23;19923;-76
2023/04/24 03:07:32;;;;;;;;;;;;;;;9.49;87.63;99467.50;6201061;23;19924;-77
2023/04/24 03:09:59;;;;;;;;;;;;;;;9.44;87.75;99470.66;6204500;23;19962;-77
2023/04/24 03:12:25;;;;;;;;;;;;;;;9.37;87.34;99466.31;6196582;23;19916;-78
2023/04/24 03:14:52;;;;;;;;;;;;;;;9.31;87.20;99473.88;6189425;23;19916;-78
2023/04/24 03:17:18;;;;;;;;;;;;;;;9.24;87.73;99472.13;6186690;23;19920;-77
2023/04/24 03:19:44;;;;;;;;;;;;;;;9.25;87.39;99473.75;6186726;23;20316;-78
2023/04/24 03:22:12;;;;;;;;;;;;;;;9.28;87.45;99474.22;6186439;23;19935;-78
2023/04/24 03:24:39;;;;;;;;;;;;;;;9.31;87.28;99484.31;6186962;23;19923;-78
2023/04/24 03:27:05;;;;;;;;;;;;;;;9.33;87.24;99478.91;6187001;23;19947;-78
2023/04/24 03:29:31;;;;;;;;;;;;;;;9.33;87.40;99478.91;6185995;23;20257;-77
2023/04/24 03:31:58;;;;;;;;;;;;;;;9.36;86.98;99477.75;6185176;23;19954;-78
2023/04/24 03:34:24;;;;;;;;;;;;;;;9.26;86.98;99470.16;6184843;23;19916;-78
2023/04/24 03:36:52;;;;;;;;;;;;;;;9.18;87.28;99467.59;6184578;23;19941;-78
2023/04/24 03:39:20;;;;;;;;;;;;;;;9.14;87.21;99474.97;6185522;23;19998;-78
2023/04/24 03:41:46;;;;;;;;;;;;;;;9.12;87.06;99476.13;6184821;23;19939;-78
2023/04/24 03:44:13;;;;;;;;;;;;;;;9.09;87.39;99473.88;6186045;23;19916;-78
2023/04/24 03:46:39;;;;;;;;;;;;;;;9.08;87.44;99477.47;6184044;23;19954;-77
2023/04/24 03:49:05;;;;;;;;;;;;;;;9.08;87.28;99467.84;6186776;23;20318;-77
2023/04/24 03:51:32;;;;;;;;;;;;;;;9.19;87.15;99471.84;6183944;23;19974;-77
2023/04/24 03:53:58;;;;;;;;;;;;;;;9.22;87.14;99471.50;6184375;23;19951;-77
2023/04/24 03:56:26;;;;;;;;;;;;;;;9.24;86.89;99466.91;6177734;23;19988;-77
2023/04/24 03:58:52;;;;;;;;;;;;;;;9.22;86.64;99467.09;6190552;23;19962;-78
2023/04/24 04:01:20;;;;;;;;;;;;;;;9.24;86.27;99469.53;6189915;23;19927;-78
2023/04/24 04:03:46;;;;;;;;;;;;;;;9.25;86.54;99476.38;6190810;23;19920;-78
2023/04/24 04:06:13;;;;;;;;;;;;;;;9.22;87.09;99471.50;6192846;23;19966;-78
2023/04/24 04:08:39;;;;;;;;;;;;;;;9.19;87.58;99474.44;6192036;23;19920;-78
2023/04/24 04:11:06;;;;;;;;;;;;;;;9.22;87.99;99472.31;6191938;23;20000;-79
2023/04/24 04:13:33;;;;;;;;;;;;;;;9.25;87.62;99486.81;6197188;23;19934;-79
2023/04/24 04:16:00;;;;;;;;;;;;;;;9.20;87.67;99474.28;6200127;23;19916;-78
2023/04/24 04:18:26;;;;;;;;;;;;;;;9.20;87.56;99479.50;6201988;23;19924;-78
2023/04/24 04:20:53;;;;;;;;;;;;;;;9.19;87.63;99477.06;6201242;23;19923;-77
2023/04/24 04:23:19;;;;;;;;;;;;;;;9.18;87.84;99478.03;6201819;23;19927;-78
2023/04/24 04:25:46;;;;;;;;;;;;;;;9.15;88.16;99481.00;6202044;23;20352;-78
2023/04/24 04:28:13;;;;;;;;;;;;;;;9.18;88.16;99480.66;6200684;23;19916;-77
2023/04/24 04:30:41;;;;;;;;;;;;;;;9.21;88.16;99480.31;6199936;23;19927;-78
2023/04/24 04:33:07;;;;;;;;;;;;;;;9.27;87.95;99479.59;6200621;23;19916;-78
2023/04/24 04:35:34;;;;;;;;;;;;;;;9.26;87.50;99475.38;6198653;23;19916;-78
2023/04/24 04:38:00;;;;;;;;;;;;;;;9.29;87.30;99485.47;6191626;23;19916;-78
2023/04/24 04:40:27;;;;;;;;;;;;;;;9.27;87.26;99492.66;6190559;23;19924;-79
2023/04/24 04:42:54;;;;;;;;;;;;;;;9.26;87.25;99493.66;6188380;23;19962;-79
2023/04/24 04:45:20;;;;;;;;;;;;;;;9.25;87.56;99495.44;6190007;23;19924;-78
2023/04/24 04:47:48;;;;;;;;;;;;;;;9.31;87.53;99496.53;6191331;23;19916;-79
2023/04/24 04:50:16;;;;;;;;;;;;;;;9.31;87.14;99501.78;6190760;23;20039;-79
2023/04/24 04:52:42;;;;;;;;;;;;;;;9.29;86.72;99490.69;6190443;23;19939;-79
2023/04/24 04:55:09;;;;;;;;;;;;;;;9.30;86.73;99500.16;6190393;23;19942;-79
2023/04/24 04:57:35;;;;;;;;;;;;;;;9.32;86.68;99506.00;6189696;23;19947;-79
2023/04/24 05:00:02;;;;;;;;;;;;;;;9.27;86.62;99503.09;6189336;23;19971;-79
2023/04/24 05:02:28;;;;;;;;;;;;;;;9.31;86.23;99507.81;6192476;23;19943;-80
2023/04/24 05:04:56;;;;;;;;;;;;;;;9.31;86.61;99512.22;6193736;23;19939;-79
2023/04/24 05:07:22;;;;;;;;;;;;;;;9.31;86.71;99512.22;6191585;23;19921;-80
2023/04/24 05:09:49;;;;;;;;;;;;;;;9.32;86.53;99514.66;6191336;23;20177;-80
2023/04/24 05:12:15;;;;;;;;;;;;;;;9.31;86.01;99518.25;6190432;23;19982;-79
2023/04/24 05:14:41;;;;;;;;;;;;;;;9.30;86.19;99516.63;6190809;23;19920;-80
2023/04/24 05:17:08;;;;;;;;;;;;;;;9.30;86.29;99515.81;6191505;23;19924;-79
2023/04/24 05:19:37;;;;;;;;;;;;;;;9.31;86.86;99522.66;6192811;23;19959;-78
2023/04/24 05:22:06;;;;;;;;;;;;;;;9.26;87.52;99522.34;6191219;23;19975;-80
2023/04/24 05:24:33;;;;;;;;;;;;;;;9.25;88.01;99515.50;6193913;23;19920;-79
2023/04/24 05:26:59;;;;;;;;;;;;;;;9.26;88.18;99535.41;6194361;23;19939;-79
2023/04/24 05:29:26;;;;;;;;;;;;;;;9.26;89.06;99538.03;6193809;23;19959;-79
2023/04/24 05:31:52;;;;;;;;;;;;;;;9.18;89.57;99544.09;6193667;23;19943;-79
2023/04/24 05:34:19;;;;;;;;;;;;;;;9.13;90.48;99540.38;6191719;23;19988;-79
2023/04/24 05:36:45;;;;;;;;;;;;;;;9.07;91.44;99546.28;6194999;23;19948;-78
2023/04/24 05:39:13;;;;;;;;;;;;;;;9.05;92.06;99550.88;6194876;23;20015;-79
2023/04/24 05:41:39;;;;;;;;;;;;;;;9.04;92.50;99546.63;6194406;23;19963;-79
2023/04/24 05:44:06;;;;;;;;;;;;;;;9.00;92.78;99540.94;6195061;23;19916;-78
2023/04/24 05:46:32;;;;;;;;;;;;;;;8.97;92.96;99547.34;6195227;23;19920;-79
2023/04/24 05:48:59;;;;;;;;;;;;;;;9.04;92.81;99557.06;6196161;23;19943;-79
2023/04/24 05:51:25;;;;;;;;;;;;;;;9.01;92.66;99560.03;6194454;23;19916;-79
2023/04/24 05:53:52;;;;;;;;;;;;;;;9.05;92.19;99549.06;6193033;23;19974;-78
2023/04/24 05:56:20;;;;;;;;;;;;;;;9.06;91.71;99545.47;6191900;23;19948;-78
2023/04/24 05:58:46;;;;;;;;;;;;;;;9.09;91.58;99537.31;6195468;23;19940;-77
2023/04/24 06:01:14;;;;;;;;;;;;;;;9.08;91.06;99545.31;6191818;23;19916;-79
2023/04/24 06:03:40;;;;;;;;;;;;;;;8.99;92.17;99554.97;6192025;23;19999;-79
2023/04/24 06:06:07;;;;;;;;;;;;;;;8.91;92.40;99552.44;6190100;23;19951;-79
2023/04/24 06:08:33;;;;;;;;;;;;;;;8.87;93.21;99557.19;6191545;23;19954;-80
2023/04/24 06:11:00;;;;;;;;;;;;;;;8.89;92.89;99551.81;6190348;23;19920;-79
2023/04/24 06:13:27;;;;;;;;;;;;;;;9.01;92.84;99554.81;6191590;23;19992;-79
2023/04/24 06:15:54;;;;;;;;;;;;;;;9.00;92.92;99556.59;6194976;23;19954;-80
2023/04/24 06:18:20;;;;;;;;;;;;;;;9.05;93.38;99549.06;6195512;23;20003;-79
2023/04/24 06:20:47;;;;;;;;;;;;;;;9.05;94.02;99553.47;6194805;23;19916;-81
2023/04/24 06:23:13;;;;;;;;;;;;;;;9.08;93.85;99555.75;6195175;23;19916;-79
2023/04/24 06:25:40;;;;;;;;;;;;;;;9.01;94.15;99554.81;6195584;23;20357;-79
2023/04/24 06:28:07;;;;;;;;;;;;;;;8.85;94.66;99551.31;6195546;23;19917;-79
2023/04/24 06:30:34;;;;;;;;;;;;;;;8.80;95.45;99564.06;6193774;23;20225;-79
2023/04/24 06:33:01;;;;;;;;;;;;;;;8.84;95.67;99575.78;6192984;23;19940;-79
2023/04/24 06:35:27;;;;;;;;;;;;;;;8.80;96.13;99571.88;6194069;23;20027;-79
2023/04/24 06:37:55;;;;;;;;;;;;;;;8.75;96.90;99583.81;6192230;23;19948;-80
2023/04/24 06:40:22;;;;;;;;;;;;;;;8.74;97.17;99585.59;6192305;23;19990;-81
2023/04/24 06:42:51;;;;;;;;;;;;;;;8.69;97.87;99574.06;6192370;23;19956;-80
2023/04/24 06:45:18;;;;;;;;;;;;;;;8.61;97.85;99582.72;6191452;23;19916;-80
2023/04/24 06:47:46;;;;;;;;;;;;;;;8.57;97.94;99587.44;6192526;23;19980;-78
2023/04/24 06:50:12;;;;;;;;;;;;;;;8.55;98.57;99591.22;6194635;23;19940;-80
2023/04/24 06:52:38;;;;;;;;;;;;;;;8.62;99.21;99606.03;6194454;23;19925;-79
2023/04/24 06:55:05;;;;;;;;;;;;;;;8.54;99.64;99592.19;6190346;23;19916;-80
2023/04/24 06:57:35;;;;;;;;;;;;;;;8.49;100.00;99591.91;6192412;23;19916;-79
2023/04/24 07:00:02;;;;;;;;;;;;;;;8.41;100.00;99597.13;6193013;23;19916;-80
2023/04/24 07:02:29;;;;;;;;;;;;;;;8.35;100.00;99597.81;6192925;23;19963;-79
2023/04/24 07:04:57;;;;;;;;;;;;;;;8.27;100.00;99591.59;6191626;23;19948;-80
2023/04/24 07:07:23;;;;;;;;;;;;;;;8.13;100.00;99597.47;6192255;23;19943;-80
2023/04/24 07:09:50;;;;;;;;;;;;;;;8.23;100.00;99603.34;6191772;23;19916;-79
2023/04/24 07:12:19;;;;;;;;;;;;;;;8.19;100.00;99617.66;6191485;23;20311;-78
2023/04/24 07:14:46;;;;;;;;;;;;;;;8.20;100.00;99615.88;6192249;23;19942;-78
2023/04/24 07:17:13;;;;;;;;;;;;;;;8.17;100.00;99621.41;6190665;23;19916;-78
2023/04/24 07:19:39;;;;;;;;;;;;;;;8.15;100.00;99631.19;6191904;23;19927;-78
2023/04/24 07:22:07;;;;;;;;;;;;;;;8.32;100.00;99620.63;6190449;23;20316;-79
2023/04/24 07:24:33;;;;;;;;;;;;;;;8.31;100.00;99628.56;6191096;23;19956;-79
2023/04/24 07:27:00;;;;;;;;;;;;;;;8.30;100.00;99635.56;6192618;23;19920;-79
2023/04/24 07:29:27;;;;;;;;;;;;;;;8.21;100.00;99613.09;6192466;23;20040;-79
2023/04/24 07:31:53;;;;;;;;;;;;;;;8.04;100.00;99640.16;6192423;23;19952;-79
2023/04/24 07:34:20;;;;;;;;;;;;;;;7.88;100.00;99643.59;6191500;23;19927;-78
2023/04/24 07:36:47;;;;;;;;;;;;;;;7.86;100.00;99631.69;6189344;23;19928;-78
2023/04/24 07:39:15;;;;;;;;;;;;;;;7.94;100.00;99652.53;6189023;23;19927;-77
2023/04/24 07:41:41;;;;;;;;;;;;;;;7.74;100.00;99646.00;6188632;23;20318;-78
2023/04/24 07:44:07;;;;;;;;;;;;;;;7.73;100.00;99654.81;6188723;23;19968;-79
2023/04/24 07:46:34;;;;;;;;;;;;;;;7.64;100.00;99648.75;6190539;23;19916;-78
2023/04/24 07:49:01;;;;;;;;;;;;;;;7.59;100.00;99666.66;6190794;23;19998;-78
2023/04/24 07:51:27;;;;;;;;;;;;;;;7.44;100.00;99666.47;6189272;23;20318;-79
2023/04/24 07:53:54;;;;;;;;;;;;;;;7.42;100.00;99676.25;6190614;23;19916;-78
2023/04/24 07:56:22;;;;;;;;;;;;;;;7.43;100.00;99682.25;6190924;23;19920;-78
2023/04/24 07:58:51;;;;;;;;;;;;;;;7.21;100.00;99678.44;6187839;23;19920;-78
2023/04/24 08:01:18;;;;;;;;;;;;;;;7.16;100.00;99683.28;6187073;23;19916;-78
2023/04/24 08:03:44;;;;;;;;;;;;;;;7.08;100.00;99704.09;6183072;23;19992;-78
2023/04/24 08:06:11;;;;;;;;;;;;;;;7.06;100.00;99703.44;6188088;23;19916;-77
2023/04/24 08:08:37;;;;;;;;;;;;;;;6.96;100.00;99704.38;6182701;23;19939;-78
2023/04/24 08:11:06;;;;;;;;;;;;;;;6.96;100.00;99713.97;6188400;23;19920;-79
2023/04/24 08:13:34;;;;;;;;;;;;;;;6.92;100.00;99713.44;6190069;23;20096;-78
2023/04/24 08:16:01;;;;;;;;;;;;;;;6.91;100.00;99706.63;6189346;23;19967;-79
2023/04/24 08:18:30;;;;;;;;;;;;;;;6.88;100.00;99721.72;6190190;23;19904;-79
2023/04/24 08:21:01;;;;;;;;;;;;;;;6.87;100.00;99727.88;6191428;23;19916;-79
2023/04/24 08:23:28;;;;;;;;;;;;;;;6.88;100.00;99727.72;6190848;23;19916;-79
2023/04/24 08:25:55;;;;;;;;;;;;;;;6.84;100.00;99731.59;6188510;23;19944;-78
2023/04/24 08:28:21;;;;;;;;;;;;;;;6.87;100.00;99731.31;6189515;23;20370;-80
2023/04/24 08:30:54;;;;;;;;;;;;;;;6.85;100.00;99737.63;6189022;23;19923;-80
2023/04/24 08:33:20;;;;;;;;;;;;;;;6.81;100.00;99739.72;6188055;23;20341;-78
2023/04/24 08:35:47;;;;;;;;;;;;;;;6.82;100.00;99743.13;6187859;23;19944;-78
2023/04/24 08:38:13;;;;;;;;;;;;;;;6.83;100.00;99749.97;6188570;23;19952;-78
2023/04/24 08:40:40;;;;;;;;;;;;;;;6.85;100.00;99748.84;6190369;23;19923;-78
2023/04/24 08:43:07;;;;;;;;;;;;;;;6.83;100.00;99753.38;6189755;23;19938;-78
2023/04/24 08:45:34;;;;;;;;;;;;;;;6.81;100.00;99760.50;6190696;23;19927;-77
2023/04/24 08:48:03;;;;;;;;;;;;;;;6.80;100.00;99769.28;6190487;23;19959;-79
2023/04/24 08:50:30;;;;;;;;;;;;;;;6.80;100.00;99782.28;6189455;23;19991;-78
2023/04/24 08:52:56;;;;;;;;;;;;;;;6.81;100.00;99786.50;6187436;23;20407;-79
2023/04/24 08:55:24;;;;;;;;;;;;;;;6.87;100.00;99787.69;6189098;23;19920;-79
2023/04/24 08:57:51;;;;;;;;;;;;;;;6.82;100.00;99795.13;6189177;23;20349;-79
2023/04/24 09:00:19;;;;;;;;;;;;;;;6.83;100.00;99809.75;6190349;23;19923;-79
2023/04/24 09:02:47;;;;;;;;;;;;;;;6.85;100.00;99811.25;6190648;23;19951;-78
2023/04/24 09:05:17;;;;;;;;;;;;;;;6.94;100.00;99820.75;6188596;23;19950;-78
2023/04/24 09:07:45;;;;;;;;;;;;;;;6.97;100.00;99825.66;6193864;23;19971;-80
2023/04/24 09:10:12;;;;;;;;;;;;;;;7.00;100.00;99837.53;6192152;23;19926;-79
2023/04/24 09:12:39;;;;;;;;;;;;;;;7.08;100.00;99841.97;6188774;23;19995;-79
2023/04/24 09:15:07;;;;;;;;;;;;;;;7.07;100.00;99835.13;6188180;23;19937;-79
2023/04/24 09:17:35;;;;;;;;;;;;;;;7.10;100.00;99846.03;6186853;23;20324;-79
2023/04/24 09:20:01;;;;;;;;;;;;;;;7.18;100.00;99863.47;6188825;23;19923;-79
2023/04/24 09:22:31;;;;;;;;;;;;;;;7.26;100.00;99866.97;6189123;23;20006;-79
2023/04/24 09:25:02;;;;;;;;;;;;;;;7.28;100.00;99879.81;6187927;23;20305;-78
2023/04/24 09:27:29;;;;;;;;;;;;;;;7.30;100.00;99890.88;6188211;23;19943;-76
2023/04/24 09:29:56;;;;;;;;;;;;;;;7.39;100.00;99891.75;6185993;23;20192;-76
2023/04/24 09:32:24;;;;;;;;;;;;;;;7.37;100.00;99902.31;6188514;23;19990;-77
2023/04/24 09:35:05;;;;;;;;;;;;;;;7.45;100.00;99906.78;6185730;23;19916;-79
2023/04/24 09:37:36;;;;;;;;;;;;;;;7.52;100.00;99898.19;6186387;23;19940;-77
2023/04/24 09:40:10;;;;;;;;;;;;;;;7.60;100.00;99906.03;6185544;23;19991;-78
2023/04/24 09:42:36;;;;;;;;;;;;;;;7.58;100.00;99910.56;6186791;23;19916;-79
2023/04/24 09:45:03;;;;;;;;;;;;;;;7.64;100.00;99907.34;6188082;23;20202;-78
2023/04/24 09:47:36;;;;;;;;;;;;;;;7.76;100.00;99915.72;6186201;23;20238;-78
2023/04/24 09:50:09;;;;;;;;;;;;;;;7.90;100.00;99914.31;6186495;23;19974;-78
2023/04/24 09:52:40;;;;;;;;;;;;;;;7.95;100.00;99920.72;6186863;23;19955;-79
2023/04/24 09:55:11;;;;;;;;;;;;;;;8.10;100.00;99923.50;6185715;23;19991;-79
2023/04/24 09:57:47;;;;;;;;;;;;;;;8.14;100.00;99914.41;6185509;23;19931;-78
2023/04/24 10:00:14;;;;;;;;;;;;;;;8.32;100.00;99922.97;6185487;23;19920;-78
2023/04/24 10:02:40;;;;;;;;;;;;;;;8.46;100.00;99920.75;6187005;23;19947;-78
2023/04/24 10:05:07;;;;;;;;;;;;;;;8.73;100.00;99915.22;6185132;23;19951;-78
2023/04/24 10:07:34;;;;;;;;;;;;;;;8.90;100.00;99936.94;6185762;23;19946;-78
2023/04/24 10:10:02;;;;;;;;;;;;;;;9.09;100.00;99935.78;6177474;23;19958;-77
2023/04/24 10:12:28;;;;;;;;;;;;;;;9.05;100.00;99943.13;6185378;23;19947;-78
2023/04/24 10:14:55;;;;;;;;;;;;;;;8.93;100.00;99929.59;6185349;23;19987;-77
2023/04/24 10:17:23;;;;;;;;;;;;;;;9.02;100.00;99945.25;6186674;23;19987;-77
2023/04/24 10:19:50;;;;;;;;;;;;;;;8.97;100.00;99941.34;6184473;23;19916;-78
2023/04/24 10:22:16;;;;;;;;;;;;;;;9.21;100.00;99950.16;6184303;23;19995;-78
2023/04/24 10:24:43;;;;;;;;;;;;;;;9.23;100.00;99948.19;6181166;23;20184;-77
2023/04/24 10:27:12;;;;;;;;;;;;;;;9.31;100.00;99951.63;6183361;23;19936;-78
2023/04/24 10:29:39;;;;;;;;;;;;;;;9.37;100.00;99957.16;6183058;23;20800;-77
2023/04/24 10:32:09;;;;;;;;;;;;;;;9.43;100.00;99957.31;6184795;23;19924;-78
2023/04/24 10:34:37;;;;;;;;;;;;;;;9.28;100.00;99953.75;6184928;23;19920;-76
2023/04/24 10:37:06;;;;;;;;;;;;;;;9.36;100.00;99963.38;6183531;23;20325;-77
2023/04/24 10:39:33;;;;;;;;;;;;;;;9.31;100.00;99966.47;6186197;23;19920;-78
2023/04/24 10:41:59;;;;;;;;;;;;;;;9.55;100.00;99960.38;6185476;23;19927;-77
2023/04/24 10:44:36;;;;;;;;;;;;;;;9.57;100.00;99966.25;6183501;23;19955;-77
2023/04/24 10:47:03;;;;;;;;;;;;;;;9.42;99.34;99981.81;6187163;23;19923;-78
2023/04/24 10:49:30;;;;;;;;;;;;;;;9.36;99.40;99979.84;6183952;23;20340;-77
2023/04/24 10:52:01;;;;;;;;;;;;;;;9.43;98.80;99985.22;6184665;23;19999;-78
2023/04/24 10:54:29;;;;;;;;;;;;;;;9.39;98.78;99986.53;6183720;23;20164;-79
2023/04/24 10:57:28;;;;;;;;;;;;;;;9.27;99.27;99993.88;6184199;23;20109;-79
2023/04/24 11:02:50;;;;;;;;;;;;;;;9.07;100.00;100003.81;5107951;27;19920;-78
2023/04/24 11:05:17;;;;;;;;;;;;;;;9.09;100.00;100007.06;5113626;28;19931;-77
2023/04/24 11:08:01;;;;;;;;;;;;;;;9.06;100.00;100007.41;5109152;28;19994;-78
2023/04/24 11:10:29;;;;;;;;;;;;;;;9.25;100.00;100007.09;5095707;28;19936;-78
2023/04/24 11:12:56;;;;;;;;;;;;;;;9.38;100.00;100006.63;5092561;28;19967;-78
2023/04/24 11:15:22;;;;;;;;;;;;;;;9.80;100.00;100005.59;5097086;28;19924;-77
2023/04/24 11:17:50;;;;;;;;;;;;;;;9.99;99.24;100013.84;5095801;28;19925;-78
2023/04/24 11:20:18;;;;;;;;;;;;;;;10.46;97.91;100020.09;5084983;28;20578;-79
2023/04/24 11:22:44;;;;;;;;;;;;;;;10.75;95.61;100014.25;5091262;28;19999;-78
2023/04/24 11:25:11;;;;;;;;;;;;;;;10.74;94.09;100029.16;5087390;28;19925;-78
2023/04/24 11:27:40;;;;;;;;;;;;;;;10.78;93.11;100017.34;5088003;28;20015;-78
2023/04/24 11:30:07;;;;;;;;;;;;;;;10.60;91.91;100024.63;5085496;28;19932;-80
2023/04/24 11:32:35;;;;;;;;;;;;;;;10.42;92.05;100029.28;5088299;28;19999;-77
2023/04/24 11:35:05;;;;;;;;;;;;;;;10.21;91.79;100028.06;5087927;28;19954;-78
2023/04/24 11:37:34;;;;;;;;;;;;;;;9.88;91.20;100039.56;5088026;28;19932;-78
2023/04/24 11:40:01;;;;;;;;;;;;;;;9.90;91.79;100050.66;5085365;28;19932;-77
2023/04/24 11:42:28;;;;;;;;;;;;;;;9.73;92.83;100039.41;5086526;28;20067;-77
2023/04/24 11:44:55;;;;;;;;;;;;;;;9.77;93.52;100045.13;5086482;28;20007;-77
2023/04/24 11:47:28;;;;;;;;;;;;;;;9.97;94.49;100054.22;5086977;28;20306;-77
2023/04/24 11:49:54;;;;;;;;;;;;;;;10.17;96.13;100046.81;5086912;28;20358;-77
2023/04/24 11:52:22;;;;;;;;;;;;;;;10.34;95.94;100047.63;5088466;28;19963;-78
2023/04/24 11:54:50;;;;;;;;;;;;;;;10.42;96.45;100045.78;5090291;28;20022;-78
2023/04/24 11:57:16;;;;;;;;;;;;;;;10.33;96.48;100056.47;5087163;28;19928;-77
2023/04/24 11:59:43;;;;;;;;;;;;;;;10.23;96.71;100052.25;5090826;28;20380;-78
2023/04/24 12:02:09;;;;;;;;;;;;;;;10.11;96.88;100050.09;5086361;28;19985;-78
2023/04/24 12:04:39;;;;;;;;;;;;;;;10.10;97.17;100051.09;5087809;28;20333;-78
2023/04/24 12:07:07;;;;;;;;;;;;;;;10.07;96.88;100054.03;5088157;28;19971;-78
2023/04/24 12:09:46;;;;;;;;;;;;;;;10.13;94.95;100067.25;5086445;28;19971;-78
2023/04/24 12:12:12;;;;;;;;;;;;;;;10.35;94.69;100060.56;5087393;28;20412;-78
2023/04/24 12:14:49;;;;;;;;;;;;;;;10.28;92.61;100064.81;5073830;28;19925;-77
2023/04/24 12:17:15;;;;;;;;;;;;;;;10.51;91.90;100072.72;5071242;28;19924;-77
2023/04/24 12:19:48;;;;;;;;;;;;;;;10.58;90.64;100068.47;5078257;28;19931;-77
2023/04/24 12:22:14;;;;;;;;;;;;;;;10.89;90.12;100074.53;5083307;28;19931;-78
2023/04/24 12:24:58;;;;;;;;;;;;;;;11.23;88.78;100075.97;5088774;28;20022;-75
2023/04/24 12:27:24;;;;;;;;;;;;;;;11.39;87.66;100056.69;5084850;28;19932;-79
2023/04/24 12:29:58;;;;;;;;;;;;;;;11.45;86.74;100069.91;5075018;28;19935;-78
2023/04/24 12:32:25;;;;;;;;;;;;;;;11.16;85.15;100060.16;5086933;28;19924;-77
2023/04/24 12:34:51;;;;;;;;;;;;;;;11.07;85.21;100065.59;5079309;28;19932;-77
2023/04/24 12:37:18;;;;;;;;;;;;;;;11.10;85.52;100065.25;5080449;28;19925;-77
2023/04/24 12:39:58;;;;;;;;;;;;;;;11.19;84.30;100070.28;5073883;28;19955;-80
2023/04/24 12:42:28;;;;;;;;;;;;;;;11.29;83.24;100063.00;5090615;28;19935;-78
2023/04/24 12:44:57;;;;;;;;;;;;;;;11.16;82.50;100069.81;5089083;28;19925;-77